createdAt,value
2018-05-18T00:00:44.936Z,8.20
2018-05-18T00:01:44.972Z,8.10
2018-05-18T00:02:44.940Z,8.50
2018-05-18T00:03:44.989Z,8.90
2018-05-18T00:04:44.982Z,8.60
2018-05-18T00:05:44.939Z,8.30
2018-05-18T00:06:44.961Z,8.30
2018-05-18T00:07:44.949Z,8.20
2018-05-18T00:13:21.679Z,8.20
2018-05-18T00:14:21.650Z,8.60
2018-05-18T00:15:24.013Z,8.10
2018-05-18T00:16:23.020Z,8.40
2018-05-18T00:17:23.016Z,8.10
2018-05-18T00:18:23.521Z,7.80
2018-05-18T00:19:23.536Z,8.80
2018-05-18T00:20:21.683Z,7.80
2018-05-18T00:21:21.701Z,8.10
2018-05-18T00:22:23.532Z,8.40
2018-05-18T00:23:21.666Z,8.40
2018-05-18T00:24:21.700Z,8.50
2018-05-18T00:25:21.712Z,8.20
2018-05-18T00:26:23.016Z,8.70
2018-05-18T00:27:26.034Z,8.60
2018-05-18T00:28:24.026Z,8.10
2018-05-18T00:29:24.519Z,8.40
2018-05-18T00:30:23.537Z,8.50
2018-05-18T00:31:21.702Z,8.10
2018-05-18T00:32:21.704Z,9.50
2018-05-18T00:33:21.730Z,7.90
2018-05-18T00:34:22.529Z,8.60
2018-05-18T00:37:55.281Z,7.90
2018-05-18T00:39:14.959Z,7.80
2018-05-18T00:39:54.053Z,8.70
2018-05-18T00:40:53.935Z,8.50
2018-05-18T00:41:53.946Z,9.20
2018-05-18T00:42:53.952Z,7.70
2018-05-18T00:43:53.955Z,8.30
2018-05-18T00:44:54.048Z,8.90
2018-05-18T00:45:53.962Z,8.60
2018-05-18T00:46:53.987Z,8.40
2018-05-18T00:47:53.964Z,8.70
2018-05-18T00:48:53.983Z,7.80
2018-05-18T00:49:54.050Z,8.70
2018-05-18T00:50:53.979Z,8.90
2018-05-18T00:51:54.020Z,8.50
2018-05-18T00:52:54.024Z,8.00
2018-05-18T00:53:54.024Z,8.30
2018-05-18T00:54:53.995Z,8.70
2018-05-18T00:55:53.986Z,8.60
2018-05-18T00:56:53.984Z,8.20
2018-05-18T00:57:53.984Z,8.10
2018-05-18T00:58:54.005Z,8.30
2018-05-18T00:59:54.013Z,8.20
2018-05-18T01:00:53.998Z,8.80
2018-05-18T01:01:54.021Z,9.30
2018-05-18T01:02:54.067Z,8.30
2018-05-18T01:03:54.027Z,9.00
2018-05-18T01:04:54.007Z,8.30
2018-05-18T01:05:53.990Z,8.30
2018-05-18T01:06:54.059Z,9.30
2018-05-18T01:07:54.008Z,8.40
2018-05-18T01:08:53.987Z,8.40
2018-05-18T01:09:53.996Z,8.80
2018-05-18T01:10:53.994Z,9.40
2018-05-18T01:11:54.029Z,8.30
2018-05-18T01:12:54.798Z,9.20
2018-05-18T01:13:54.014Z,9.00
2018-05-18T01:14:54.033Z,9.00
2018-05-18T01:15:54.030Z,8.70
2018-05-18T01:16:54.024Z,8.90
2018-05-18T01:17:54.125Z,8.90
2018-05-18T01:18:54.042Z,8.40
2018-05-18T01:19:54.038Z,8.30
2018-05-18T01:20:54.051Z,8.10
2018-05-18T01:21:54.036Z,8.50
2018-05-18T01:22:54.011Z,8.40
2018-05-18T01:23:54.018Z,8.90
2018-05-18T01:24:54.036Z,8.70
2018-05-18T01:25:54.014Z,9.10
2018-05-18T01:26:54.017Z,8.00
2018-05-18T01:27:54.083Z,8.00
2018-05-18T01:28:54.053Z,8.80
2018-05-18T01:29:54.027Z,8.20
2018-05-18T01:30:54.121Z,7.80
2018-05-18T01:31:54.076Z,7.70
2018-05-18T01:32:54.058Z,7.50
2018-05-18T01:33:54.089Z,8.30
2018-05-18T01:34:54.033Z,8.10
2018-05-18T01:35:54.041Z,8.30
2018-05-18T01:36:54.061Z,7.70
2018-05-18T01:37:54.063Z,7.40
2018-05-18T01:38:54.075Z,7.60
2018-05-18T01:39:54.056Z,7.40
2018-05-18T01:40:54.069Z,7.90
2018-05-18T01:41:54.048Z,7.80
2018-05-18T01:42:54.060Z,7.50
2018-05-18T01:43:54.078Z,7.80
2018-05-18T01:44:54.066Z,8.00
2018-05-18T01:45:54.082Z,7.60
2018-05-18T01:46:54.059Z,7.00
2018-05-18T01:47:54.080Z,7.60
2018-05-18T01:48:54.126Z,7.50
2018-05-18T01:49:54.057Z,8.10
2018-05-18T01:50:54.078Z,7.10
2018-05-18T01:51:54.060Z,7.40
2018-05-18T01:52:54.072Z,7.70
2018-05-18T01:53:54.081Z,8.00
2018-05-18T01:54:54.122Z,7.40
2018-05-18T01:55:54.079Z,7.50
2018-05-18T01:56:54.145Z,7.70
2018-05-18T01:57:54.087Z,7.20
2018-05-18T01:58:54.094Z,7.90
2018-05-18T01:59:54.100Z,7.50
2018-05-18T02:00:54.085Z,7.60
2018-05-18T02:01:54.096Z,7.20
2018-05-18T02:02:54.072Z,8.00
2018-05-18T02:03:54.076Z,7.30
2018-05-18T02:04:54.076Z,7.40
2018-05-18T02:05:54.097Z,7.20
2018-05-18T02:06:54.096Z,7.80
2018-05-18T02:07:54.082Z,7.60
2018-05-18T02:08:54.097Z,7.80
2018-05-18T02:09:54.807Z,7.00
2018-05-18T02:10:54.142Z,8.00
2018-05-18T02:11:54.105Z,7.60
2018-05-18T02:12:54.109Z,7.90
2018-05-18T02:13:54.183Z,6.50
2018-05-18T02:14:54.097Z,7.60
2018-05-18T02:15:54.144Z,7.50
2018-05-18T02:16:54.117Z,7.70
2018-05-18T02:17:54.123Z,7.90
2018-05-18T02:18:54.119Z,7.80
2018-05-18T02:19:54.121Z,7.60
2018-05-18T02:20:54.099Z,7.20
2018-05-18T02:21:54.109Z,7.20
2018-05-18T02:22:54.113Z,7.40
2018-05-18T02:23:54.113Z,7.80
2018-05-18T02:24:54.122Z,7.10
2018-05-18T02:25:54.125Z,6.70
2018-05-18T02:26:54.109Z,7.20
2018-05-18T02:27:54.117Z,7.30
2018-05-18T02:28:54.131Z,7.30
2018-05-18T02:29:54.163Z,7.90
2018-05-18T02:30:54.126Z,7.70
2018-05-18T02:31:54.132Z,7.10
2018-05-18T02:32:54.125Z,7.20
2018-05-18T02:33:54.143Z,7.80
2018-05-18T02:34:54.131Z,7.70
2018-05-18T02:35:54.178Z,8.00
2018-05-18T02:36:54.141Z,7.30
2018-05-18T02:37:54.204Z,7.30
2018-05-18T02:38:54.148Z,7.80
2018-05-18T02:39:54.158Z,8.20
2018-05-18T02:40:54.136Z,6.80
2018-05-18T02:41:54.188Z,7.70
2018-05-18T02:42:54.166Z,7.20
2018-05-18T02:43:54.126Z,7.90
2018-05-18T02:44:54.199Z,7.20
2018-05-18T02:45:54.215Z,7.60
2018-05-18T02:46:54.148Z,8.20
2018-05-18T02:47:54.136Z,7.90
2018-05-18T02:48:54.174Z,7.70
2018-05-18T02:49:54.134Z,7.50
2018-05-18T02:50:54.826Z,8.40
2018-05-18T02:51:54.142Z,6.80
2018-05-18T02:52:54.141Z,7.70
2018-05-18T02:53:54.157Z,7.10
2018-05-18T02:54:54.163Z,7.80
2018-05-18T02:55:54.167Z,7.10
2018-05-18T02:56:54.197Z,7.80
2018-05-18T02:57:54.150Z,7.50
2018-05-18T02:58:54.173Z,7.20
2018-05-18T02:59:54.175Z,7.40
2018-05-18T03:00:54.194Z,7.40
2018-05-18T03:01:54.211Z,7.60
2018-05-18T03:02:54.150Z,6.80
2018-05-18T03:03:54.166Z,7.00
2018-05-18T03:04:54.236Z,7.70
2018-05-18T03:05:54.162Z,7.60
2018-05-18T03:06:54.209Z,7.40
2018-05-18T03:07:54.173Z,7.50
2018-05-18T03:08:54.305Z,7.00
2018-05-18T03:09:54.257Z,6.70
2018-05-18T03:10:54.247Z,8.20
2018-05-18T03:11:54.209Z,7.20
2018-05-18T03:12:54.187Z,7.40
2018-05-18T03:13:54.201Z,6.80
2018-05-18T03:14:54.219Z,7.00
2018-05-18T03:15:54.176Z,6.70
2018-05-18T03:16:54.246Z,6.10
2018-05-18T03:17:54.222Z,6.10
2018-05-18T03:18:54.230Z,6.60
2018-05-18T03:19:54.197Z,6.20
2018-05-18T03:20:54.212Z,6.80
2018-05-18T03:21:54.195Z,7.00
2018-05-18T03:22:54.188Z,6.20
2018-05-18T03:23:54.209Z,7.30
2018-05-18T03:24:54.199Z,6.50
2018-05-18T03:25:54.199Z,6.90
2018-05-18T03:26:54.214Z,6.30
2018-05-18T03:27:54.237Z,6.50
2018-05-18T03:28:54.216Z,7.50
2018-05-18T03:29:54.199Z,7.30
2018-05-18T03:30:54.223Z,6.50
2018-05-18T03:31:54.232Z,6.50
2018-05-18T03:32:54.222Z,6.60
2018-05-18T03:33:54.232Z,6.60
2018-05-18T03:34:54.223Z,6.40
2018-05-18T03:35:54.225Z,6.20
2018-05-18T03:36:54.249Z,6.70
2018-05-18T03:37:54.236Z,6.40
2018-05-18T03:38:54.234Z,6.30
2018-05-18T03:39:54.207Z,6.70
2018-05-18T03:40:54.282Z,6.40
2018-05-18T03:41:54.229Z,6.30
2018-05-18T03:42:54.215Z,6.80
2018-05-18T03:43:54.225Z,6.70
2018-05-18T03:44:54.237Z,6.10
2018-05-18T03:45:54.225Z,6.50
2018-05-18T03:46:54.238Z,6.30
2018-05-18T03:47:54.281Z,6.70
2018-05-18T03:48:54.275Z,6.90
2018-05-18T03:49:54.318Z,6.30
2018-05-18T03:50:54.227Z,6.60
2018-05-18T03:51:54.245Z,6.10
2018-05-18T03:52:54.243Z,6.90
2018-05-18T03:53:54.248Z,6.50
2018-05-18T03:54:54.273Z,7.00
2018-05-18T03:55:54.236Z,6.80
2018-05-18T03:56:54.353Z,6.10
2018-05-18T03:57:54.231Z,6.50
2018-05-18T03:58:54.261Z,6.80
2018-05-18T03:59:54.254Z,6.50
2018-05-18T04:00:54.258Z,6.00
2018-05-18T04:01:54.237Z,6.60
2018-05-18T04:02:54.232Z,6.50
2018-05-18T04:03:54.244Z,6.50
2018-05-18T04:04:54.251Z,6.10
2018-05-18T04:05:54.277Z,7.50
2018-05-18T04:06:54.243Z,6.20
2018-05-18T04:07:54.339Z,6.90
2018-05-18T04:08:54.272Z,6.80
2018-05-18T04:09:54.285Z,7.00
2018-05-18T04:10:54.839Z,6.00
2018-05-18T04:11:54.259Z,6.40
2018-05-18T04:12:54.282Z,6.50
2018-05-18T04:13:54.245Z,6.40
2018-05-18T04:14:54.259Z,7.30
2018-05-18T04:15:54.340Z,6.90
2018-05-18T04:16:54.852Z,7.30
2018-05-18T04:17:54.265Z,6.50
2018-05-18T04:18:54.289Z,6.20
2018-05-18T04:19:54.293Z,7.10
2018-05-18T04:20:54.263Z,6.30
2018-05-18T04:21:54.276Z,6.80
2018-05-18T04:22:54.280Z,7.10
2018-05-18T04:23:54.289Z,6.70
2018-05-18T04:24:54.324Z,7.00
2018-05-18T04:25:54.277Z,6.90
2018-05-18T04:26:54.282Z,6.80
2018-05-18T04:27:54.283Z,6.60
2018-05-18T04:28:54.388Z,7.00
2018-05-18T04:29:54.290Z,6.90
2018-05-18T04:30:54.298Z,7.00
2018-05-18T04:31:54.273Z,6.90
2018-05-18T04:32:54.278Z,6.40
2018-05-18T04:33:54.274Z,7.40
2018-05-18T04:34:54.284Z,7.30
2018-05-18T04:35:54.293Z,6.50
2018-05-18T04:36:54.283Z,6.60
2018-05-18T04:37:54.284Z,6.60
2018-05-18T04:38:54.297Z,6.60
2018-05-18T04:39:54.318Z,6.50
2018-05-18T04:40:54.287Z,7.30
2018-05-18T04:41:54.390Z,6.50
2018-05-18T04:42:54.295Z,6.50
2018-05-18T04:43:54.301Z,6.50
2018-05-18T04:44:54.324Z,6.60
2018-05-18T04:45:54.306Z,7.00
2018-05-18T04:46:54.317Z,6.90
2018-05-18T04:47:54.356Z,6.90
2018-05-18T04:48:54.356Z,6.60
2018-05-18T04:49:54.846Z,6.70
2018-05-18T04:50:54.355Z,6.40
2018-05-18T04:51:54.301Z,7.00
2018-05-18T04:52:54.300Z,6.90
2018-05-18T04:53:54.328Z,6.70
2018-05-18T04:54:54.311Z,6.80
2018-05-18T04:55:54.336Z,6.80
2018-05-18T04:56:54.323Z,7.20
2018-05-18T04:57:54.301Z,6.80
2018-05-18T04:58:54.430Z,6.40
2018-05-18T04:59:54.342Z,6.50
2018-05-18T05:00:54.333Z,7.50
2018-05-18T05:01:54.354Z,7.00
2018-05-18T05:02:54.348Z,6.90
2018-05-18T05:03:54.337Z,7.70
2018-05-18T05:04:54.849Z,7.30
2018-05-18T05:05:54.326Z,6.80
2018-05-18T05:06:54.327Z,7.60
2018-05-18T05:07:54.332Z,7.50
2018-05-18T05:08:54.454Z,6.50
2018-05-18T05:09:54.854Z,6.30
2018-05-18T05:10:54.323Z,6.50
2018-05-18T05:11:54.334Z,6.90
2018-05-18T05:12:54.386Z,7.10
2018-05-18T05:13:54.340Z,6.80
2018-05-18T05:14:54.351Z,6.60
2018-05-18T05:15:54.354Z,6.70
2018-05-18T05:16:54.399Z,6.40
2018-05-18T05:17:54.443Z,7.00
2018-05-18T05:18:54.428Z,6.90
2018-05-18T05:19:54.347Z,6.70
2018-05-18T05:20:54.404Z,7.20
2018-05-18T05:21:54.340Z,6.70
2018-05-18T05:22:54.441Z,7.90
2018-05-18T05:23:54.397Z,8.60
2018-05-18T05:24:54.365Z,7.90
2018-05-18T05:25:54.381Z,7.70
2018-05-18T05:26:54.367Z,7.50
2018-05-18T05:27:54.388Z,6.90
2018-05-18T05:28:54.367Z,6.50
2018-05-18T05:29:54.370Z,6.70
2018-05-18T05:30:54.453Z,6.30
2018-05-18T05:31:54.388Z,7.50
2018-05-18T05:32:54.393Z,6.60
2018-05-18T05:33:54.439Z,7.00
2018-05-18T05:34:54.438Z,7.10
2018-05-18T05:35:54.870Z,7.40
2018-05-18T05:36:54.396Z,6.40
2018-05-18T05:37:54.453Z,6.60
2018-05-18T05:38:54.860Z,6.50
2018-05-18T05:39:54.417Z,7.70
2018-05-18T05:40:54.377Z,7.40
2018-05-18T05:41:54.432Z,7.20
2018-05-18T05:42:54.403Z,7.40
2018-05-18T05:43:54.428Z,7.10
2018-05-18T05:44:54.386Z,6.70
2018-05-18T05:45:54.424Z,6.60
2018-05-18T05:46:54.417Z,7.50
2018-05-18T05:47:54.407Z,8.10
2018-05-18T05:48:54.484Z,7.60
2018-05-18T05:49:54.400Z,7.30
2018-05-18T05:50:54.435Z,7.00
2018-05-18T05:51:54.435Z,7.20
2018-05-18T05:52:54.451Z,7.60
2018-05-18T05:53:54.558Z,7.30
2018-05-18T05:54:54.425Z,8.40
2018-05-18T05:55:54.431Z,7.30
2018-05-18T05:56:54.461Z,7.30
2018-05-18T05:57:54.419Z,7.20
2018-05-18T05:58:54.470Z,6.90
2018-05-18T05:59:54.411Z,6.90
2018-05-18T06:00:54.491Z,7.20
2018-05-18T06:01:54.438Z,7.60
2018-05-18T06:02:54.462Z,8.30
2018-05-18T06:03:54.408Z,6.90
2018-05-18T06:04:54.523Z,7.10
2018-05-18T06:05:54.413Z,7.70
2018-05-18T06:06:54.489Z,7.20
2018-05-18T06:07:54.441Z,7.70
2018-05-18T06:08:54.454Z,8.00
2018-05-18T06:09:54.432Z,8.00
2018-05-18T06:10:54.620Z,7.70
2018-05-18T06:11:54.644Z,7.70
2018-05-18T06:12:54.663Z,7.50
2018-05-18T06:13:55.369Z,7.50
2018-05-18T06:14:54.492Z,7.90
2018-05-18T06:15:54.516Z,8.90
2018-05-18T06:16:54.712Z,7.40
2018-05-18T06:17:54.504Z,7.80
2018-05-18T06:18:54.457Z,7.70
2018-05-18T06:19:54.481Z,7.20
2018-05-18T06:20:54.512Z,7.80
2018-05-18T06:21:54.644Z,7.60
2018-05-18T06:22:54.531Z,7.50
2018-05-18T06:23:54.583Z,7.50
2018-05-18T06:24:54.532Z,7.90
2018-05-18T06:25:54.658Z,8.30
2018-05-18T06:26:54.627Z,7.20
2018-05-18T06:27:54.636Z,7.20
2018-05-18T06:28:54.526Z,7.90
2018-05-18T06:29:54.630Z,7.20
2018-05-18T06:30:55.004Z,8.00
2018-05-18T06:31:54.543Z,7.30
2018-05-18T06:32:54.584Z,7.60
2018-05-18T06:33:54.546Z,7.10
2018-05-18T06:34:55.722Z,6.50
2018-05-18T06:35:54.615Z,7.30
2018-05-18T06:36:54.564Z,6.70
2018-05-18T06:37:55.812Z,6.80
2018-05-18T06:38:54.995Z,7.20
2018-05-18T06:39:54.565Z,6.70
2018-05-18T06:40:54.487Z,6.90
2018-05-18T06:41:54.600Z,6.80
2018-05-18T06:42:54.617Z,8.40
2018-05-18T06:43:54.519Z,8.70
2018-05-18T06:44:54.720Z,7.90
2018-05-18T06:45:54.556Z,7.50
2018-05-18T06:47:03.262Z,6.90
2018-05-18T06:47:54.526Z,7.60
2018-05-18T06:48:54.609Z,7.60
2018-05-18T06:49:54.599Z,7.90
2018-05-18T06:50:54.623Z,7.70
2018-05-18T06:51:54.878Z,7.50
2018-05-18T06:52:54.595Z,7.50
2018-05-18T06:53:54.615Z,7.90
2018-05-18T06:54:54.604Z,8.30
2018-05-18T06:55:54.571Z,8.60
2018-05-18T06:56:54.675Z,8.20
2018-05-18T06:57:54.638Z,7.30
2018-05-18T06:58:54.592Z,7.60
2018-05-18T06:59:54.572Z,8.30
2018-05-18T07:00:54.526Z,7.80
2018-05-18T07:01:54.534Z,7.90
2018-05-18T07:02:54.561Z,7.70
2018-05-18T07:03:54.718Z,8.10
2018-05-18T07:04:54.576Z,7.10
2018-05-18T07:05:54.613Z,7.10
2018-05-18T07:06:54.586Z,8.30
2018-05-18T07:07:54.568Z,7.90
2018-05-18T07:08:54.594Z,7.40
2018-05-18T07:09:54.615Z,7.50
2018-05-18T07:10:55.385Z,7.40
2018-05-18T07:11:54.872Z,8.50
2018-05-18T07:12:54.625Z,8.10
2018-05-18T07:13:54.691Z,7.50
2018-05-18T07:14:54.618Z,8.00
2018-05-18T07:15:54.703Z,7.70
2018-05-18T07:18:15.926Z,7.70
2018-05-18T07:18:54.738Z,8.30
2018-05-18T07:19:55.724Z,7.50
2018-05-18T07:20:54.735Z,7.80
2018-05-18T07:21:55.495Z,7.70
2018-05-18T07:22:56.220Z,6.80
2018-05-18T07:23:55.075Z,7.20
2018-05-18T07:24:54.716Z,7.30
2018-05-18T07:25:54.706Z,7.50
2018-05-18T07:26:54.795Z,8.00
2018-05-18T07:27:54.716Z,8.40
2018-05-18T07:28:54.912Z,8.10
2018-05-18T07:29:54.715Z,7.70
2018-05-18T07:30:54.685Z,7.90
2018-05-18T07:31:54.780Z,8.10
2018-05-18T07:32:54.737Z,8.90
2018-05-18T07:33:54.845Z,8.50
2018-05-18T07:34:54.759Z,9.00
2018-05-18T07:35:54.885Z,8.70
2018-05-18T07:36:54.786Z,7.70
2018-05-18T07:37:54.676Z,8.40
2018-05-18T07:38:54.781Z,8.50
2018-05-18T07:39:54.692Z,7.90
2018-05-18T07:40:54.811Z,8.40
2018-05-18T07:41:54.709Z,8.20
2018-05-18T07:42:54.685Z,8.70
2018-05-18T07:43:54.749Z,8.40
2018-05-18T07:44:54.873Z,8.00
2018-05-18T07:45:54.796Z,8.40
2018-05-18T07:46:54.838Z,8.20
2018-05-18T07:47:54.844Z,8.30
2018-05-18T07:48:54.784Z,8.50
2018-05-18T07:49:54.762Z,8.30
2018-05-18T07:50:54.890Z,8.10
2018-05-18T07:51:54.771Z,8.60
2018-05-18T07:52:55.687Z,7.90
2018-05-18T07:53:54.806Z,8.70
2018-05-18T07:54:54.867Z,8.30
2018-05-18T07:55:54.804Z,8.40
2018-05-18T07:56:54.720Z,7.60
2018-05-18T07:57:54.905Z,8.80
2018-05-18T07:58:54.770Z,7.80
2018-05-18T07:59:54.744Z,8.60
2018-05-18T08:00:54.856Z,8.10
2018-05-18T08:01:55.005Z,8.60
2018-05-18T08:02:54.859Z,8.20
2018-05-18T08:03:54.851Z,7.80
2018-05-18T08:04:54.856Z,7.10
2018-05-18T08:05:54.877Z,8.70
2018-05-18T08:06:54.790Z,8.20
2018-05-18T08:07:54.790Z,7.60
2018-05-18T08:08:55.708Z,8.50
2018-05-18T08:09:54.792Z,8.10
2018-05-18T08:10:55.711Z,8.00
2018-05-18T08:11:54.782Z,7.70
2018-05-18T08:12:54.821Z,8.40
2018-05-18T08:13:55.551Z,8.00
2018-05-18T08:14:54.767Z,9.00
2018-05-18T08:15:55.119Z,8.10
2018-05-18T08:16:55.949Z,8.80
2018-05-18T08:17:55.366Z,8.40
2018-05-18T08:18:57.044Z,8.10
2018-05-18T08:20:01.925Z,7.40
2018-05-18T08:20:54.863Z,8.30
2018-05-18T08:22:01.750Z,8.90
2018-05-18T08:22:58.992Z,8.00
2018-05-18T08:23:57.141Z,8.20
2018-05-18T08:25:01.550Z,7.90
2018-05-18T08:25:55.169Z,8.30
2018-05-18T08:26:55.075Z,8.10
2018-05-18T08:27:55.364Z,8.90
2018-05-18T08:28:56.008Z,8.30
2018-05-18T08:29:55.160Z,8.30
2018-05-18T08:30:55.068Z,8.00
2018-05-18T08:31:54.938Z,7.60
2018-05-18T08:32:55.829Z,8.00
2018-05-18T08:33:54.824Z,8.90
2018-05-18T08:34:54.935Z,8.10
2018-05-18T08:35:55.527Z,7.30
2018-05-18T08:36:55.043Z,7.40
2018-05-18T08:37:54.966Z,6.50
2018-05-18T08:38:55.779Z,6.70
2018-05-18T08:39:55.261Z,7.60
2018-05-18T08:40:55.014Z,7.40
2018-05-18T08:41:55.084Z,7.80
2018-05-18T08:42:55.307Z,7.50
2018-05-18T08:43:55.444Z,7.40
2018-05-18T08:44:56.525Z,6.80
2018-05-18T08:45:56.518Z,7.00
2018-05-18T08:48:44.994Z,7.60
2018-05-18T08:49:05.228Z,7.30
2018-05-18T08:51:32.970Z,8.70
2018-05-18T08:52:04.624Z,8.00
2018-05-18T08:53:17.662Z,7.80
2018-05-18T08:53:55.224Z,7.60
2018-05-18T08:54:55.106Z,8.00
2018-05-18T08:55:55.259Z,8.00
2018-05-18T08:56:55.159Z,7.20
2018-05-18T08:57:55.074Z,7.20
2018-05-18T08:58:55.097Z,6.70
2018-05-18T08:59:55.183Z,6.60
2018-05-18T09:00:55.215Z,6.50
2018-05-18T09:01:55.853Z,6.30
2018-05-18T09:02:55.133Z,7.10
2018-05-18T09:03:56.032Z,7.10
2018-05-18T09:04:55.382Z,7.80
2018-05-18T09:05:55.115Z,7.70
2018-05-18T09:06:55.112Z,7.50
2018-05-18T09:07:55.143Z,7.30
2018-05-18T09:08:56.228Z,6.60
2018-05-18T09:09:56.233Z,6.70
2018-05-18T09:10:55.319Z,7.40
2018-05-18T09:11:57.351Z,7.00
2018-05-18T09:12:55.581Z,6.40
2018-05-18T09:13:55.972Z,6.90
2018-05-18T09:14:55.756Z,6.80
2018-05-18T09:15:56.595Z,6.50
2018-05-18T09:16:56.090Z,6.40
2018-05-18T09:17:55.496Z,6.90
2018-05-18T09:18:55.853Z,6.50
2018-05-18T09:19:55.437Z,7.20
2018-05-18T09:20:56.732Z,7.30
2018-05-18T09:21:55.491Z,6.60
2018-05-18T09:22:59.509Z,7.30
2018-05-18T09:23:56.301Z,6.80
2018-05-18T09:24:55.351Z,6.60
2018-05-18T09:25:55.627Z,6.00
2018-05-18T09:26:55.379Z,7.40
2018-05-18T09:27:55.481Z,6.80
2018-05-18T09:28:55.464Z,6.90
2018-05-18T09:29:55.366Z,7.30
2018-05-18T09:30:55.487Z,7.80
2018-05-18T09:31:58.865Z,6.90
2018-05-18T09:32:55.406Z,11.00
2018-05-18T09:33:55.573Z,12.40
2018-05-18T09:34:55.499Z,22.40
2018-05-18T09:35:55.630Z,16.60
2018-05-18T09:36:55.641Z,11.30
2018-05-18T09:37:55.485Z,9.70
2018-05-18T09:38:55.614Z,13.80
2018-05-18T09:39:55.789Z,12.30
2018-05-18T09:40:55.505Z,9.60
2018-05-18T09:41:55.712Z,7.90
2018-05-18T09:42:56.366Z,7.30
2018-05-18T09:43:55.692Z,8.00
2018-05-18T09:44:56.364Z,7.90
2018-05-18T09:45:55.621Z,7.80
2018-05-18T09:46:55.581Z,9.60
2018-05-18T09:47:56.451Z,7.90
2018-05-18T09:48:55.915Z,7.70
2018-05-18T09:49:55.895Z,7.00
2018-05-18T09:50:55.940Z,7.20
2018-05-18T09:51:56.572Z,8.00
2018-05-18T09:52:55.811Z,6.80
2018-05-18T09:53:56.052Z,7.20
2018-05-18T09:54:57.140Z,7.00
2018-05-18T09:55:55.910Z,7.40
2018-05-18T09:56:57.329Z,7.30
2018-05-18T09:57:55.955Z,6.40
2018-05-18T09:58:57.094Z,6.30
2018-05-18T09:59:55.993Z,6.80
2018-05-18T10:00:56.244Z,6.90
2018-05-18T10:01:56.191Z,6.90
2018-05-18T10:02:56.030Z,7.10
2018-05-18T10:03:55.893Z,6.70
2018-05-18T10:04:55.751Z,6.90
2018-05-18T10:05:55.855Z,6.40
2018-05-18T10:06:56.023Z,7.10
2018-05-18T10:07:56.293Z,6.50
2018-05-18T10:08:57.384Z,7.00
2018-05-18T10:09:56.061Z,6.80
2018-05-18T10:10:55.988Z,6.60
2018-05-18T10:11:56.037Z,7.40
2018-05-18T10:12:55.938Z,6.50
2018-05-18T10:13:55.990Z,6.40
2018-05-18T10:14:55.913Z,5.90
2018-05-18T10:15:56.028Z,7.20
2018-05-18T10:16:56.218Z,6.60
2018-05-18T10:17:58.913Z,6.40
2018-05-18T10:19:08.865Z,6.60
2018-05-18T10:19:56.299Z,6.70
2018-05-18T10:20:56.171Z,6.90
2018-05-18T10:21:56.103Z,7.30
2018-05-18T10:22:56.067Z,6.60
2018-05-18T10:23:56.169Z,6.30
2018-05-18T10:24:56.134Z,6.30
2018-05-18T10:25:56.113Z,6.30
2018-05-18T10:26:56.306Z,7.40
2018-05-18T10:27:56.197Z,7.50
2018-05-18T10:28:56.340Z,7.50
2018-05-18T10:29:56.224Z,7.10
2018-05-18T10:30:56.214Z,6.20
2018-05-18T10:31:56.227Z,6.70
2018-05-18T10:32:56.230Z,6.90
2018-05-18T10:33:56.208Z,7.00
2018-05-18T10:34:56.267Z,7.20
2018-05-18T10:35:56.245Z,7.50
2018-05-18T10:36:56.345Z,7.40
2018-05-18T10:37:56.366Z,7.00
2018-05-18T10:38:56.226Z,6.80
2018-05-18T10:39:56.264Z,6.40
2018-05-18T10:40:56.477Z,6.70
2018-05-18T10:41:56.317Z,7.10
2018-05-18T10:42:56.494Z,6.80
2018-05-18T10:43:56.324Z,7.30
2018-05-18T10:44:56.321Z,7.00
2018-05-18T10:45:56.325Z,7.00
2018-05-18T10:46:56.437Z,6.80
2018-05-18T10:47:56.531Z,6.70
2018-05-18T10:48:56.390Z,7.30
2018-05-18T10:49:56.569Z,7.10
2018-05-18T10:50:56.556Z,7.00
2018-05-18T10:51:56.515Z,6.80
2018-05-18T10:52:56.697Z,7.30
2018-05-18T10:53:57.450Z,7.60
2018-05-18T10:54:56.427Z,7.70
2018-05-18T10:55:56.504Z,7.10
2018-05-18T10:56:56.523Z,8.00
2018-05-18T10:57:56.488Z,7.30
2018-05-18T10:58:56.801Z,7.40
2018-05-18T10:59:56.507Z,7.80
2018-05-18T11:00:56.774Z,7.90
2018-05-18T11:01:56.503Z,7.50
2018-05-18T11:02:56.564Z,7.30
2018-05-18T11:03:56.526Z,9.20
2018-05-18T11:04:56.484Z,7.50
2018-05-18T11:05:56.623Z,6.80
2018-05-18T11:06:56.616Z,7.40
2018-05-18T11:07:56.836Z,7.00
2018-05-18T11:08:56.517Z,7.50
2018-05-18T11:09:56.561Z,7.20
2018-05-18T11:10:56.652Z,6.90
2018-05-18T11:11:56.771Z,7.40
2018-05-18T11:12:57.717Z,7.20
2018-05-18T11:13:56.760Z,7.70
2018-05-18T11:14:56.819Z,7.60
2018-05-18T11:15:57.218Z,6.50
2018-05-18T11:16:56.871Z,6.80
2018-05-18T11:17:56.747Z,7.20
2018-05-18T11:18:56.941Z,6.80
2018-05-18T11:19:57.083Z,7.00
2018-05-18T11:20:57.000Z,7.20
2018-05-18T11:21:57.619Z,7.20
2018-05-18T11:22:56.904Z,7.80
2018-05-18T11:23:56.724Z,7.10
2018-05-18T11:24:56.699Z,7.50
2018-05-18T11:25:56.677Z,7.40
2018-05-18T11:26:56.735Z,7.70
2018-05-18T11:27:56.837Z,7.80
2018-05-18T11:28:56.668Z,7.20
2018-05-18T11:29:56.744Z,8.20
2018-05-18T11:30:56.761Z,7.50
2018-05-18T11:31:56.760Z,7.50
2018-05-18T11:32:56.753Z,7.40
2018-05-18T11:33:56.757Z,7.20
2018-05-18T11:34:56.716Z,7.80
2018-05-18T11:35:56.785Z,8.00
2018-05-18T11:36:56.816Z,7.60
2018-05-18T11:37:56.785Z,7.10
2018-05-18T11:38:56.814Z,7.60
2018-05-18T11:39:56.785Z,7.70
2018-05-18T11:40:56.801Z,7.20
2018-05-18T11:41:56.836Z,7.70
2018-05-18T11:42:56.775Z,7.00
2018-05-18T11:43:56.870Z,7.20
2018-05-18T11:44:56.866Z,7.70
2018-05-18T11:45:56.851Z,8.20
2018-05-18T11:46:57.006Z,6.80
2018-05-18T11:47:56.891Z,7.30
2018-05-18T11:48:56.915Z,7.50
2018-05-18T11:49:56.808Z,8.10
2018-05-18T11:50:56.884Z,7.60
2018-05-18T11:51:56.807Z,7.80
2018-05-18T11:52:56.887Z,8.40
2018-05-18T11:53:57.145Z,7.70
2018-05-18T11:54:56.950Z,8.10
2018-05-18T11:55:57.031Z,8.30
2018-05-18T11:56:56.908Z,8.40
2018-05-18T11:57:56.946Z,7.70
2018-05-18T11:58:56.877Z,7.60
2018-05-18T11:59:56.883Z,7.80
2018-05-18T12:00:57.331Z,8.00
2018-05-18T12:01:56.953Z,8.00
2018-05-18T12:02:57.541Z,7.90
2018-05-18T12:03:57.140Z,7.70
2018-05-18T12:04:56.996Z,8.30
2018-05-18T12:05:56.999Z,8.60
2018-05-18T12:06:56.987Z,8.30
2018-05-18T12:07:56.897Z,8.00
2018-05-18T12:08:57.039Z,7.40
2018-05-18T12:10:58.945Z,7.80
2018-05-18T12:11:57.133Z,7.60
2018-05-18T12:12:57.472Z,7.80
2018-05-18T12:13:56.957Z,8.30
2018-05-18T12:14:56.976Z,7.60
2018-05-18T12:15:57.385Z,8.50
2018-05-18T12:16:56.954Z,8.40
2018-05-18T12:17:57.110Z,7.60
2018-05-18T12:18:56.936Z,7.80
2018-05-18T12:19:57.051Z,8.60
2018-05-18T12:20:57.115Z,8.50
2018-05-18T12:21:57.055Z,8.30
2018-05-18T12:22:57.149Z,8.70
2018-05-18T12:23:56.971Z,7.80
2018-05-18T12:24:57.014Z,8.80
2018-05-18T12:25:57.080Z,8.70
2018-05-18T12:26:57.476Z,8.40
2018-05-18T12:27:57.092Z,8.60
2018-05-18T12:28:57.069Z,8.60
2018-05-18T12:29:57.014Z,9.40
2018-05-18T12:30:57.185Z,8.90
2018-05-18T12:32:20.993Z,9.20
2018-05-18T12:32:58.023Z,8.90
2018-05-18T12:33:57.002Z,9.00
2018-05-18T12:34:59.693Z,9.00
2018-05-18T12:35:57.021Z,9.70
2018-05-18T12:36:57.005Z,8.40
2018-05-18T12:37:57.478Z,8.50
2018-05-18T12:38:57.012Z,9.00
2018-05-18T12:39:57.156Z,11.20
2018-05-18T12:40:57.157Z,9.40
2018-05-18T12:41:57.606Z,9.40
2018-05-18T12:42:57.003Z,9.60
2018-05-18T12:43:58.193Z,9.20
2018-05-18T12:44:57.116Z,8.80
2018-05-18T12:45:57.278Z,9.10
2018-05-18T12:46:57.182Z,9.40
2018-05-18T12:47:59.246Z,8.60
2018-05-18T12:48:57.397Z,9.20
2018-05-18T12:49:57.467Z,9.40
2018-05-18T12:50:57.576Z,9.10
2018-05-18T12:51:57.266Z,9.20
2018-05-18T12:52:57.384Z,8.90
2018-05-18T12:53:57.432Z,9.40
2018-05-18T12:54:57.174Z,8.90
2018-05-18T12:55:57.268Z,8.90
2018-05-18T12:56:59.981Z,8.60
2018-05-18T12:57:57.302Z,8.70
2018-05-18T12:58:57.208Z,9.30
2018-05-18T12:59:58.348Z,9.70
2018-05-18T13:00:57.256Z,8.60
2018-05-18T13:01:57.130Z,9.00
2018-05-18T13:02:57.410Z,8.40
2018-05-18T13:03:57.352Z,8.40
2018-05-18T13:04:57.192Z,9.60
2018-05-18T13:05:57.230Z,9.90
2018-05-18T13:06:57.538Z,9.40
2018-05-18T13:07:57.219Z,9.80
2018-05-18T13:08:57.229Z,9.60
2018-05-18T13:09:57.227Z,8.40
2018-05-18T13:10:57.219Z,8.30
2018-05-18T13:11:57.208Z,9.00
2018-05-18T13:12:57.157Z,9.00
2018-05-18T13:13:57.116Z,9.10
2018-05-18T13:14:57.270Z,9.80
2018-05-18T13:15:57.183Z,8.60
2018-05-18T13:16:57.254Z,8.70
2018-05-18T13:18:20.662Z,9.30
2018-05-18T13:19:52.311Z,9.10
2018-05-18T13:20:52.169Z,8.50
2018-05-18T13:21:52.399Z,9.30
2018-05-18T13:22:54.016Z,9.20
2018-05-18T13:23:52.795Z,7.90
2018-05-18T13:24:52.104Z,8.80
2018-05-18T13:25:52.433Z,8.70
2018-05-18T13:26:52.222Z,9.60
2018-05-18T13:27:52.718Z,9.30
2018-05-18T13:28:52.836Z,9.20
2018-05-18T13:29:53.126Z,10.00
2018-05-18T13:30:52.299Z,10.00